Time;durP1;ratioP1;P1;durP2;ratioP2;P2;SDS_P1;SDS_P2;PMS_P1;PMS_P2;Temp;Humidity;BMP_temperature;BMP_pressure;BME280_temperature;BME280_humidity;BME280_pressure;Samples;Min_cycle;Max_cycle;Signal;HPM_P1;HPM_P2
2022/12/16 00:00:14;;;;;;;5.05;3.58;;;;;;;0.52;100.00;100952.28;4992089;28;20342;-60
2022/12/16 00:02:40;;;;;;;9.65;3.55;;;;;;;0.52;100.00;100931.56;4994330;28;20039;-62
2022/12/16 00:05:06;;;;;;;7.07;3.85;;;;;;;0.34;100.00;100916.72;4995310;28;20049;-61
2022/12/16 00:07:31;;;;;;;7.65;4.00;;;;;;;-0.06;100.00;100863.66;4978109;28;20042;-61
2022/12/16 00:09:56;;;;;;;6.82;3.20;;;;;;;0.20;100.00;100912.25;4995379;28;20485;-59
2022/12/16 00:12:21;;;;;;;6.55;3.95;;;;;;;0.21;100.00;100914.84;4995363;28;20482;-62
2022/12/16 00:14:47;;;;;;;7.60;3.50;;;;;;;0.22;100.00;100913.13;4995266;28;20034;-61
2022/12/16 00:17:12;;;;;;;10.93;4.10;;;;;;;0.40;100.00;100952.16;4995056;28;20405;-59
2022/12/16 00:19:37;;;;;;;8.02;3.22;;;;;;;0.45;100.00;100941.00;4977691;28;20125;-59
2022/12/16 00:22:03;;;;;;;4.75;3.15;;;;;;;-0.06;100.00;100863.66;4995420;28;20034;-61
2022/12/16 00:24:30;;;;;;;10.10;3.63;;;;;;;0.25;100.00;100916.63;4995007;28;20042;-61
2022/12/16 00:26:55;;;;;;;3.60;2.80;;;;;;;0.29;100.00;100933.91;4994968;28;20402;-59
2022/12/16 00:29:21;;;;;;;5.18;3.38;;;;;;;0.29;100.00;100939.09;4994766;28;20117;-59
2022/12/16 00:31:46;;;;;;;5.13;3.10;;;;;;;-0.13;100.00;100876.50;4994969;28;20057;-61
2022/12/16 00:34:16;;;;;;;8.18;3.80;;;;;;;0.22;100.00;100926.94;4995204;28;20398;-60
2022/12/16 00:36:42;;;;;;;6.60;3.20;;;;;;;0.31;100.00;100941.72;4961531;28;20350;-60
2022/12/16 00:39:08;;;;;;;21.70;4.88;;;;;;;-0.10;100.00;100864.50;4977471;28;20054;-60
2022/12/16 00:41:33;;;;;;;7.90;3.40;;;;;;;0.33;100.00;100945.16;4977503;28;20057;-61
2022/12/16 00:43:59;;;;;;;11.93;3.40;;;;;;;0.29;100.00;100952.03;4977060;28;20054;-60
2022/12/16 00:46:24;;;;;;;11.82;3.05;;;;;;;0.26;100.00;100961.50;4994737;28;20042;-59
2022/12/16 00:48:49;;;;;;;8.50;3.20;;;;;;;0.16;100.00;100945.00;4994625;28;20394;-63
2022/12/16 00:51:15;;;;;;;6.68;3.30;;;;;;;-0.10;100.00;100900.72;4994600;28;20034;-60
2022/12/16 00:53:40;;;;;;;8.20;3.35;;;;;;;0.31;100.00;100962.41;4994839;28;20038;-59
2022/12/16 00:56:10;;;;;;;7.80;3.38;;;;;;;0.31;100.00;100973.66;4995058;28;20437;-61
2022/12/16 00:58:36;;;;;;;9.10;3.70;;;;;;;0.28;100.00;100967.56;4976608;28;20125;-60
2022/12/16 01:01:04;;;;;;;8.70;3.38;;;;;;;0.24;100.00;100976.13;4982327;28;20117;-62
2022/12/16 01:03:30;;;;;;;7.18;3.47;;;;;;;0.27;100.00;100964.09;4982093;28;20044;-59
2022/12/16 01:05:55;;;;;;;6.55;3.00;;;;;;;0.27;100.00;100974.44;4984091;28;20038;-60
2022/12/16 01:08:21;;;;;;;7.53;3.35;;;;;;;-0.03;100.00;100919.78;4994596;28;20031;-59
2022/12/16 01:10:56;;;;;;;11.07;3.10;;;;;;;-0.06;100.00;100932.66;4977142;28;20042;-59
2022/12/16 01:13:23;;;;;;;9.57;3.75;;;;;;;0.13;100.00;100969.97;4993157;28;20474;-59
2022/12/16 01:15:49;;;;;;;9.07;3.25;;;;;;;0.01;100.00;100960.34;4994451;28;20026;-60
2022/12/16 01:18:15;;;;;;;8.88;3.60;;;;;;;-0.40;100.00;100887.41;4977083;28;20045;-61
2022/12/16 01:20:41;;;;;;;12.68;3.30;;;;;;;-0.08;100.00;100955.03;4994394;28;20030;-61
2022/12/16 01:23:06;;;;;;;8.35;3.53;;;;;;;0.07;100.00;100981.13;4976958;28;20410;-61
2022/12/16 01:25:32;;;;;;;10.35;3.35;;;;;;;-0.13;100.00;100939.47;4994347;28;20536;-60
2022/12/16 01:27:57;;;;;;;9.00;2.90;;;;;;;0.02;100.00;100981.91;4976906;28;20050;-61
2022/12/16 01:30:23;;;;;;;6.03;2.58;;;;;;;-0.02;100.00;100988.75;4994020;28;20420;-61
2022/12/16 01:32:49;;;;;;;10.77;3.38;;;;;;;-0.02;100.00;100994.81;4976556;28;20041;-63
2022/12/16 01:35:14;;;;;;;9.70;2.63;;;;;;;-0.34;100.00;100954.72;4994106;28;20042;-60
2022/12/16 01:37:40;;;;;;;7.78;2.92;;;;;;;-0.16;100.00;100998.06;4987414;28;20037;-60
2022/12/16 01:40:08;;;;;;;4.47;2.40;;;;;;;-0.15;100.00;101005.88;4996117;28;20045;-60
2022/12/16 01:42:33;;;;;;;12.40;3.25;;;;;;;-0.13;100.00;101006.75;5013340;28;20046;-60
2022/12/16 01:45:24;;;;;;;10.40;3.15;;;;;;;-0.11;100.00;101009.34;5013259;28;20042;-63
2022/12/16 01:47:50;;;;;;;12.52;3.40;;;;;;;-0.11;100.00;101022.28;5013429;28;20404;-60
2022/12/16 01:50:18;;;;;;;6.05;2.30;;;;;;;-0.12;100.00;101023.16;5013316;28;20033;-59
2022/12/16 01:52:48;;;;;;;4.78;2.40;;;;;;;-0.22;100.00;101016.97;5013553;28;20092;-60
2022/12/16 01:55:20;;;;;;;6.55;2.58;;;;;;;-0.24;100.00;101031.59;4977779;28;20042;-60
2022/12/16 01:57:52;;;;;;;8.50;2.40;;;;;;;-0.18;100.00;101033.41;4976283;28;20188;-60
2022/12/16 02:00:18;;;;;;;5.70;2.25;;;;;;;-0.17;100.00;101028.25;5010058;28;20077;-60
2022/12/16 02:02:45;;;;;;;8.52;2.72;;;;;;;-0.20;100.00;101040.25;5013153;28;20049;-62
2022/12/16 02:05:19;;;;;;;7.28;2.28;;;;;;;-0.40;100.00;101013.25;5004623;28;20027;-59
2022/12/16 02:07:53;;;;;;;7.53;2.65;;;;;;;-0.32;100.00;101038.38;4993335;28;20117;-61
2022/12/16 02:10:20;;;;;;;7.10;2.35;;;;;;;-0.52;100.00;101018.22;4975243;28;20073;-62
2022/12/16 02:12:56;;;;;;;6.65;2.00;;;;;;;-0.35;100.00;101040.91;4974337;28;20033;-60
2022/12/16 02:15:35;;;;;;;5.47;2.28;;;;;;;-0.33;100.00;101044.41;4995312;28;20488;-59
2022/12/16 02:18:19;;;;;;;9.13;2.15;;;;;;;-0.32;100.00;101051.28;5008983;28;20034;-59
2022/12/16 02:20:53;;;;;;;8.98;2.05;;;;;;;-0.32;100.00;101071.16;4982944;28;20026;-59
2022/12/16 02:23:52;;;;;;;6.82;1.95;;;;;;;-0.33;100.00;101059.03;4992696;28;20057;-59
2022/12/16 02:26:28;;;;;;;3.08;1.67;;;;;;;-0.89;100.00;100981.47;4992695;28;20030;-60
2022/12/16 02:29:12;;;;;;;11.02;2.10;;;;;;;-0.44;100.00;101068.38;4974966;28;20169;-60
2022/12/16 02:31:56;;;;;;;4.60;2.10;;;;;;;-0.52;100.00;101055.28;4992448;28;20222;-60
2022/12/16 02:34:29;;;;;;;6.47;1.50;;;;;;;-0.62;100.00;101054.31;4992363;28;20041;-59
2022/12/16 02:37:01;;;;;;;7.93;3.25;;;;;;;-0.63;100.00;101056.84;4992458;28;20034;-59
2022/12/16 02:39:35;;;;;;;8.25;3.20;;;;;;;-1.10;100.00;100975.97;4992037;28;20035;-59
2022/12/16 02:42:16;;;;;;;3.83;1.52;;;;;;;-0.64;100.00;101049.94;4992568;28;20050;-60
2022/12/16 02:44:54;;;;;;;7.57;2.03;;;;;;;-0.65;100.00;101062.00;4974826;28;20042;-59
2022/12/16 02:47:19;;;;;;;10.60;2.35;;;;;;;-0.68;100.00;101054.22;4974979;28;20117;-60
2022/12/16 02:49:46;;;;;;;5.60;1.70;;;;;;;-0.64;100.00;101062.84;4992598;28;20114;-59
2022/12/16 02:52:12;;;;;;;6.25;2.47;;;;;;;-0.69;100.00;101065.38;4992626;28;20035;-60
2022/12/16 02:54:38;;;;;;;5.97;2.20;;;;;;;-1.24;100.00;100977.44;4992401;28;20084;-60
2022/12/16 02:57:31;;;;;;;6.32;1.98;;;;;;;-0.72;100.00;101075.66;4992547;28;20046;-60
2022/12/16 03:00:02;;;;;;;6.68;1.95;;;;;;;-0.74;100.00;101079.94;4992103;28;20058;-61
2022/12/16 03:02:48;;;;;;;4.88;1.67;;;;;;;-0.70;100.00;101084.31;4958964;28;20031;-59
2022/12/16 03:05:19;;;;;;;7.75;1.95;;;;;;;-0.99;100.00;101033.84;4975099;28;20047;-60
2022/12/16 03:07:44;;;;;;;;;;;;;;;-0.63;100.00;101086.16;4975528;28;20136;-60
2022/12/16 03:10:15;;;;;;;7.88;2.00;;;;;;;-1.21;100.00;101011.94;4975103;28;19914;-60
2022/12/16 03:12:42;;;;;;;4.45;1.80;;;;;;;-1.40;100.00;100988.34;4992730;28;20100;-60
2022/12/16 03:15:10;;;;;;;2.75;1.50;;;;;;;-1.36;100.00;101015.94;4991973;28;20031;-60
2022/12/16 03:17:36;;;;;;;6.90;2.33;;;;;;;-1.02;100.00;101077.69;4963282;28;20070;-60
2022/12/16 03:20:09;;;;;;;5.97;2.10;;;;;;;-1.01;100.00;101089.78;4974735;28;20073;-60
2022/12/16 03:22:36;;;;;;;7.97;1.67;;;;;;;-0.98;100.00;101104.47;4974334;28;20474;-60
2022/12/16 03:25:03;;;;;;;4.93;1.90;;;;;;;-1.39;100.00;101013.31;4991826;28;20038;-60
2022/12/16 03:27:46;;;;;;;8.82;1.73;;;;;;;-0.88;100.00;101114.16;4974784;28;20035;-60
2022/12/16 03:30:41;;;;;;;8.07;1.60;;;;;;;-0.85;100.00;101098.69;4971456;28;20385;-60
2022/12/16 03:33:16;;;;;;;12.82;2.10;;;;;;;-1.19;100.00;101048.13;4984260;28;20116;-61
2022/12/16 03:35:54;;;;;;;7.13;1.88;;;;;;;-1.37;100.00;101014.22;4974185;28;20458;-61
2022/12/16 03:38:20;;;;;;;5.57;2.33;;;;;;;-1.37;100.00;101022.81;4995405;28;20058;-60
2022/12/16 03:40:47;;;;;;;6.35;1.98;;;;;;;-1.07;100.00;101081.03;4959007;28;20070;-61
2022/12/16 03:43:16;;;;;;;5.65;1.85;;;;;;;-1.09;100.00;101081.03;4972906;28;20050;-60
2022/12/16 03:45:44;;;;;;;6.53;1.63;;;;;;;-1.43;100.00;101051.09;4962872;28;20054;-59
2022/12/16 03:48:11;;;;;;;12.07;2.03;;;;;;;-1.18;100.00;101119.59;4978628;28;20465;-60
2022/12/16 03:50:37;;;;;;;8.88;1.60;;;;;;;-1.71;100.00;101041.09;4995736;28;20038;-60
2022/12/16 03:53:04;;;;;;;9.15;2.30;;;;;;;-1.76;100.00;101042.72;4995637;28;20388;-59
2022/12/16 03:55:29;;;;;;;8.30;2.13;;;;;;;-2.10;100.00;100993.84;4977923;28;20117;-59
2022/12/16 03:57:56;;;;;;;5.85;1.90;;;;;;;-1.38;100.00;101131.25;4995532;28;20197;-60
2022/12/16 04:00:21;;;;;;;11.80;2.35;;;;;;;-1.99;100.00;101025.88;4995318;28;20113;-60
2022/12/16 04:02:47;;;;;;;6.47;2.05;;;;;;;-1.74;100.00;101096.09;4995210;28;20129;-61
2022/12/16 04:05:12;;;;;;;5.25;2.08;;;;;;;-1.72;100.00;101109.88;4977960;28;20520;-60
2022/12/16 04:07:37;;;;;;;6.78;2.05;;;;;;;-1.68;100.00;101126.31;4992364;28;20038;-60
2022/12/16 04:10:04;;;;;;;7.35;2.00;;;;;;;-2.12;100.00;101060.84;4982412;28;20042;-60
2022/12/16 04:26:30;;;;;;;7.78;2.30;;;;;;;-2.03;100.00;101147.88;4980451;28;20048;-60
2022/12/16 04:28:55;;;;;;;14.70;2.83;;;;;;;-3.01;100.00;101005.50;4994968;28;20404;-61
2022/12/16 04:31:21;;;;;;;6.90;2.15;;;;;;;-2.61;100.00;101099.22;4995093;28;20512;-60
